createdAt,value
2019-03-19T00:00:47.167Z,92.38
2019-03-19T00:01:47.153Z,92.38
2019-03-19T00:02:47.188Z,92.29
2019-03-19T00:03:47.226Z,92.38
2019-03-19T00:04:47.258Z,92.94
2019-03-19T00:05:47.293Z,92.85
2019-03-19T00:06:47.338Z,92.85
2019-03-19T00:07:47.365Z,92.85
2019-03-19T00:08:47.400Z,92.29
2019-03-19T00:09:47.436Z,91.91
2019-03-19T00:10:47.469Z,92.19
2019-03-19T00:11:47.507Z,91.53
2019-03-19T00:12:47.541Z,92.10
2019-03-19T00:13:47.574Z,92.00
2019-03-19T00:14:47.622Z,92.19
2019-03-19T00:15:47.654Z,92.66
2019-03-19T00:16:47.684Z,92.29
2019-03-19T00:17:47.717Z,92.76
2019-03-19T00:18:47.754Z,92.85
2019-03-19T00:19:47.793Z,92.85
2019-03-19T00:20:47.826Z,92.85
2019-03-19T00:21:47.858Z,92.57
2019-03-19T00:22:47.893Z,92.76
2019-03-19T00:23:47.930Z,92.66
2019-03-19T00:24:48.022Z,92.85
2019-03-19T00:25:47.997Z,92.38
2019-03-19T00:26:48.031Z,92.76
2019-03-19T00:27:48.069Z,92.47
2019-03-19T00:28:48.106Z,92.00
2019-03-19T00:29:48.139Z,92.29
2019-03-19T00:30:48.177Z,91.81
2019-03-19T00:31:48.210Z,92.66
2019-03-19T00:32:48.253Z,92.76
2019-03-19T00:33:48.277Z,92.57
2019-03-19T00:34:48.321Z,92.29
2019-03-19T00:35:48.350Z,92.57
2019-03-19T00:36:48.434Z,92.57
2019-03-19T00:37:48.422Z,92.57
2019-03-19T00:38:48.455Z,92.85
2019-03-19T00:39:48.487Z,92.57
2019-03-19T00:40:48.531Z,92.85
2019-03-19T00:41:48.560Z,92.66
2019-03-19T00:42:48.594Z,91.81
2019-03-19T00:43:48.629Z,91.72
2019-03-19T00:44:48.666Z,91.91
2019-03-19T00:45:48.698Z,92.29
2019-03-19T00:46:48.734Z,91.81
2019-03-19T00:47:48.769Z,92.76
2019-03-19T00:48:48.805Z,92.76
2019-03-19T00:49:48.839Z,92.00
2019-03-19T00:50:48.873Z,91.81
2019-03-19T00:51:48.909Z,92.38
2019-03-19T00:52:48.945Z,91.72
2019-03-19T00:53:48.980Z,92.10
2019-03-19T00:54:49.026Z,92.19
2019-03-19T00:55:49.050Z,92.57
2019-03-19T00:56:49.086Z,92.57
2019-03-19T00:57:49.221Z,92.00
2019-03-19T00:58:49.155Z,92.19
2019-03-19T00:59:49.214Z,92.57
2019-03-19T01:00:49.224Z,92.38
2019-03-19T01:01:49.267Z,92.38
2019-03-19T01:02:49.308Z,92.57
2019-03-19T01:03:49.329Z,92.85
2019-03-19T01:04:49.374Z,92.57
2019-03-19T01:05:49.397Z,92.57
2019-03-19T01:06:49.435Z,92.94
2019-03-19T01:07:49.469Z,92.38
2019-03-19T01:08:49.503Z,92.47
2019-03-19T01:09:49.538Z,92.76
2019-03-19T01:10:49.575Z,92.85
2019-03-19T01:11:49.616Z,92.38
2019-03-19T01:12:49.645Z,92.94
2019-03-19T01:13:49.729Z,92.94
2019-03-19T01:14:49.714Z,92.85
2019-03-19T01:15:49.751Z,92.94
2019-03-19T01:16:49.788Z,93.32
2019-03-19T01:17:49.823Z,92.57
2019-03-19T01:18:49.854Z,92.76
2019-03-19T01:19:49.890Z,93.13
2019-03-19T01:20:49.925Z,93.13
2019-03-19T01:21:49.957Z,93.32
2019-03-19T01:22:49.993Z,93.13
2019-03-19T01:23:50.030Z,93.13
2019-03-19T01:24:50.063Z,92.76
2019-03-19T01:25:55.600Z,92.94
2019-03-19T01:26:50.134Z,92.76
2019-03-19T01:27:50.170Z,92.66
2019-03-19T01:28:50.215Z,92.57
2019-03-19T01:29:50.239Z,92.57
2019-03-19T01:30:50.280Z,92.47
2019-03-19T01:31:50.317Z,92.57
2019-03-19T01:32:50.343Z,92.57
2019-03-19T01:33:50.378Z,92.57
2019-03-19T01:34:50.412Z,92.85
2019-03-19T01:35:50.450Z,92.76
2019-03-19T01:36:50.484Z,92.76
2019-03-19T01:37:50.518Z,92.38
2019-03-19T01:38:50.552Z,93.13
2019-03-19T01:39:50.594Z,93.32
2019-03-19T01:40:50.625Z,92.66
2019-03-19T01:41:50.657Z,93.04
2019-03-19T01:42:50.700Z,92.66
2019-03-19T01:43:50.726Z,92.85
2019-03-19T01:44:50.761Z,92.94
2019-03-19T01:45:50.797Z,92.94
2019-03-19T01:46:50.830Z,92.76
2019-03-19T01:47:50.875Z,92.47
2019-03-19T01:48:50.902Z,92.85
2019-03-19T01:49:50.937Z,92.57
2019-03-19T01:50:50.975Z,92.38
2019-03-19T01:51:51.013Z,92.47
2019-03-19T01:52:51.040Z,92.94
2019-03-19T01:53:51.081Z,92.94
2019-03-19T01:54:51.111Z,92.85
2019-03-19T01:55:51.149Z,92.85
2019-03-19T01:56:51.182Z,92.57
2019-03-19T01:57:51.215Z,92.66
2019-03-19T01:58:51.250Z,93.13
2019-03-19T01:59:51.292Z,92.85
2019-03-19T02:00:51.323Z,93.13
2019-03-19T02:01:51.361Z,92.94
2019-03-19T02:02:51.390Z,93.04
2019-03-19T02:03:51.426Z,93.13
2019-03-19T02:04:51.468Z,92.57
2019-03-19T02:05:51.496Z,92.94
2019-03-19T02:06:51.537Z,92.57
2019-03-19T02:07:51.565Z,92.47
2019-03-19T02:08:51.600Z,93.04
2019-03-19T02:09:51.635Z,93.13
2019-03-19T02:10:51.670Z,93.13
2019-03-19T02:11:51.706Z,92.47
2019-03-19T02:12:51.741Z,92.76
2019-03-19T02:13:51.776Z,92.94
2019-03-19T02:14:51.807Z,92.99
2019-03-19T02:15:51.857Z,92.47
2019-03-19T02:16:51.878Z,92.94
2019-03-19T02:17:51.913Z,93.04
2019-03-19T02:18:51.948Z,92.85
2019-03-19T02:19:51.991Z,93.13
2019-03-19T02:20:52.020Z,93.13
2019-03-19T02:21:52.060Z,92.66
2019-03-19T02:22:52.087Z,93.13
2019-03-19T02:23:52.123Z,92.94
2019-03-19T02:24:52.157Z,92.94
2019-03-19T02:25:52.191Z,93.18
2019-03-19T02:26:52.228Z,92.47
2019-03-19T02:27:52.270Z,92.76
2019-03-19T02:28:52.298Z,92.61
2019-03-19T02:29:52.330Z,92.52
2019-03-19T02:30:52.369Z,92.43
2019-03-19T02:31:52.404Z,93.09
2019-03-19T02:32:52.439Z,93.09
2019-03-19T02:33:52.474Z,93.09
2019-03-19T02:34:52.505Z,93.56
2019-03-19T02:35:52.548Z,93.47
2019-03-19T02:36:52.576Z,93.18
2019-03-19T02:37:52.611Z,93.09
2019-03-19T02:38:52.647Z,92.43
2019-03-19T02:39:52.683Z,92.61
2019-03-19T02:40:52.715Z,92.99
2019-03-19T02:41:52.750Z,92.80
2019-03-19T02:42:52.802Z,92.90
2019-03-19T02:43:52.832Z,92.71
2019-03-19T02:44:52.866Z,93.09
2019-03-19T02:45:52.892Z,92.80
2019-03-19T02:46:52.926Z,92.71
2019-03-19T02:47:52.958Z,92.33
2019-03-19T02:48:52.995Z,92.61
2019-03-19T02:49:53.038Z,92.43
2019-03-19T02:50:53.063Z,92.43
2019-03-19T02:51:53.096Z,92.14
2019-03-19T02:52:53.142Z,92.80
2019-03-19T02:53:53.166Z,92.52
2019-03-19T02:54:53.202Z,92.99
2019-03-19T02:55:53.237Z,92.90
2019-03-19T02:56:53.272Z,92.61
2019-03-19T02:57:53.307Z,92.90
2019-03-19T02:58:53.343Z,92.80
2019-03-19T02:59:53.376Z,92.43
2019-03-19T03:00:53.412Z,92.61
2019-03-19T03:01:53.447Z,92.71
2019-03-19T03:02:53.489Z,92.61
2019-03-19T03:03:53.513Z,92.61
2019-03-19T03:04:53.551Z,92.90
2019-03-19T03:05:53.598Z,92.71
2019-03-19T03:06:53.620Z,92.71
2019-03-19T03:07:53.660Z,92.80
2019-03-19T03:08:53.690Z,92.90
2019-03-19T03:09:53.722Z,92.61
2019-03-19T03:10:53.813Z,92.71
2019-03-19T03:11:53.792Z,92.52
2019-03-19T03:12:53.828Z,92.80
2019-03-19T03:13:53.876Z,92.61
2019-03-19T03:14:53.895Z,92.61
2019-03-19T03:15:53.932Z,92.52
2019-03-19T03:16:53.971Z,93.09
2019-03-19T03:17:53.999Z,93.09
2019-03-19T03:18:54.033Z,92.52
2019-03-19T03:19:54.070Z,92.80
2019-03-19T03:20:54.110Z,92.80
2019-03-19T03:21:54.140Z,92.90
2019-03-19T03:22:54.182Z,92.80
2019-03-19T03:23:54.215Z,92.80
2019-03-19T03:24:54.245Z,92.43
2019-03-19T03:25:54.277Z,92.52
2019-03-19T03:26:54.314Z,92.99
2019-03-19T03:27:54.398Z,92.61
2019-03-19T03:28:54.384Z,92.52
2019-03-19T03:29:54.423Z,92.24
2019-03-19T03:30:54.472Z,92.33
2019-03-19T03:31:54.484Z,91.96
2019-03-19T03:32:54.521Z,91.96
2019-03-19T03:33:54.564Z,92.38
2019-03-19T03:34:54.601Z,92.29
2019-03-19T03:35:54.637Z,92.19
2019-03-19T03:36:54.658Z,92.10
2019-03-19T03:37:54.694Z,92.38
2019-03-19T03:38:54.735Z,92.10
2019-03-19T03:39:54.818Z,92.47
2019-03-19T03:40:54.800Z,92.29
2019-03-19T03:41:54.834Z,92.19
2019-03-19T03:42:54.871Z,92.57
2019-03-19T03:43:54.904Z,92.66
2019-03-19T03:44:54.935Z,93.04
2019-03-19T03:45:54.971Z,92.94
2019-03-19T03:46:55.006Z,92.85
2019-03-19T03:47:55.045Z,93.23
2019-03-19T03:48:55.080Z,93.32
2019-03-19T03:49:55.111Z,93.13
2019-03-19T03:50:55.150Z,93.42
2019-03-19T03:51:55.197Z,93.99
2019-03-19T03:52:55.214Z,94.18
2019-03-19T03:53:55.249Z,94.46
2019-03-19T03:54:55.284Z,94.46
2019-03-19T03:55:55.323Z,94.08
2019-03-19T03:57:01.749Z,93.80
2019-03-19T03:57:55.389Z,93.99
2019-03-19T03:59:00.916Z,93.89
2019-03-19T03:59:55.468Z,93.70
2019-03-19T04:00:55.496Z,93.89
2019-03-19T04:01:55.527Z,93.99
2019-03-19T04:02:55.563Z,94.18
2019-03-19T04:03:55.597Z,94.46
2019-03-19T04:04:55.632Z,94.84
2019-03-19T04:05:55.669Z,94.37
2019-03-19T04:06:55.712Z,94.27
2019-03-19T04:07:55.741Z,94.46
2019-03-19T04:08:55.776Z,94.65
2019-03-19T04:09:55.810Z,95.03
2019-03-19T04:10:55.847Z,94.65
2019-03-19T04:11:55.878Z,94.46
2019-03-19T04:12:55.916Z,94.37
2019-03-19T04:13:55.949Z,93.80
2019-03-19T04:14:55.985Z,93.80
2019-03-19T04:15:56.022Z,93.99
2019-03-19T04:16:56.054Z,93.99
2019-03-19T04:17:56.087Z,93.70
2019-03-19T04:18:56.132Z,94.46
2019-03-19T04:19:56.373Z,94.27
2019-03-19T04:20:56.199Z,93.70
2019-03-19T04:21:56.228Z,93.42
2019-03-19T04:22:56.266Z,93.70
2019-03-19T04:23:56.318Z,93.89
2019-03-19T04:24:56.333Z,93.70
2019-03-19T04:25:56.366Z,93.75
2019-03-19T04:26:56.401Z,93.84
2019-03-19T04:27:56.445Z,93.94
2019-03-19T04:28:56.472Z,93.75
2019-03-19T04:29:56.504Z,95.07
2019-03-19T04:30:56.542Z,93.75
2019-03-19T04:31:56.573Z,93.75
2019-03-19T04:32:56.616Z,93.37
2019-03-19T04:33:56.648Z,93.47
2019-03-19T04:34:56.677Z,93.37
2019-03-19T04:35:56.710Z,93.75
2019-03-19T04:36:56.748Z,93.75
2019-03-19T04:37:56.782Z,93.66
2019-03-19T04:38:56.822Z,93.28
2019-03-19T04:39:56.850Z,93.47
2019-03-19T04:40:56.885Z,93.66
2019-03-19T04:41:56.920Z,93.66
2019-03-19T04:42:56.957Z,93.09
2019-03-19T04:43:56.988Z,93.18
2019-03-19T04:44:57.025Z,93.37
2019-03-19T04:45:57.058Z,93.28
2019-03-19T04:46:57.092Z,93.09
2019-03-19T04:47:57.129Z,92.90
2019-03-19T04:48:57.163Z,93.28
2019-03-19T04:49:57.198Z,93.18
2019-03-19T04:50:57.232Z,92.43
2019-03-19T04:51:57.267Z,92.61
2019-03-19T04:52:57.306Z,92.80
2019-03-19T04:53:57.335Z,92.61
2019-03-19T04:54:57.373Z,92.71
2019-03-19T04:55:57.405Z,92.71
2019-03-19T04:56:57.440Z,92.43
2019-03-19T04:57:57.476Z,92.52
2019-03-19T04:58:57.511Z,92.71
2019-03-19T04:59:59.080Z,92.71
2019-03-19T05:00:57.731Z,92.61
2019-03-19T05:01:57.613Z,93.09
2019-03-19T05:02:57.651Z,92.61
2019-03-19T05:03:57.703Z,92.43
2019-03-19T05:04:57.718Z,92.33
2019-03-19T05:05:59.532Z,92.61
2019-03-19T05:06:57.794Z,92.80
2019-03-19T05:07:57.820Z,92.99
2019-03-19T05:08:57.855Z,92.61
2019-03-19T05:09:57.891Z,92.71
2019-03-19T05:10:57.936Z,92.71
2019-03-19T05:11:57.971Z,92.71
2019-03-19T05:12:58.013Z,92.52
2019-03-19T05:13:58.034Z,92.61
2019-03-19T05:14:58.062Z,93.28
2019-03-19T05:15:58.097Z,93.28
2019-03-19T05:16:58.133Z,93.09
2019-03-19T05:17:58.167Z,92.71
2019-03-19T05:18:58.200Z,93.09
2019-03-19T05:19:58.235Z,93.09
2019-03-19T05:20:58.271Z,93.37
2019-03-19T05:21:58.304Z,93.37
2019-03-19T05:22:58.341Z,93.47
2019-03-19T05:23:58.373Z,93.66
2019-03-19T05:24:58.408Z,93.47
2019-03-19T05:25:58.443Z,93.56
2019-03-19T05:26:58.534Z,93.47
2019-03-19T05:27:58.511Z,93.28
2019-03-19T05:28:58.546Z,93.09
2019-03-19T05:29:58.583Z,93.28
2019-03-19T05:30:58.619Z,93.09
2019-03-19T05:31:58.650Z,93.18
2019-03-19T05:32:58.688Z,92.43
2019-03-19T05:33:58.719Z,93.09
2019-03-19T05:34:58.756Z,93.09
2019-03-19T05:35:58.789Z,92.61
2019-03-19T05:36:58.826Z,92.52
2019-03-19T05:37:58.858Z,92.61
2019-03-19T05:38:58.907Z,92.90
2019-03-19T05:39:58.929Z,92.61
2019-03-19T05:40:58.963Z,92.99
2019-03-19T05:41:58.993Z,92.24
2019-03-19T05:42:59.030Z,92.43
2019-03-19T05:43:59.065Z,92.71
2019-03-19T05:44:59.097Z,92.43
2019-03-19T05:45:59.147Z,92.52
2019-03-19T05:46:59.167Z,92.71
2019-03-19T05:47:59.202Z,92.61
2019-03-19T05:48:59.237Z,92.80
2019-03-19T05:49:59.269Z,92.71
2019-03-19T05:50:59.304Z,92.90
2019-03-19T05:51:59.339Z,92.71
2019-03-19T05:52:59.376Z,92.52
2019-03-19T05:53:59.410Z,92.52
2019-03-19T05:54:59.448Z,92.61
2019-03-19T05:55:59.478Z,93.28
2019-03-19T05:56:59.515Z,93.28
2019-03-19T05:57:59.545Z,93.28
2019-03-19T05:58:59.581Z,93.28
2019-03-19T05:59:59.615Z,92.90
2019-03-19T06:00:59.655Z,92.90
2019-03-19T06:01:59.686Z,93.09
2019-03-19T06:02:59.718Z,93.09
2019-03-19T06:03:59.760Z,93.09
2019-03-19T06:04:59.791Z,92.90
2019-03-19T06:05:59.824Z,92.90
2019-03-19T06:06:59.864Z,93.37
2019-03-19T06:07:59.893Z,93.09
2019-03-19T06:08:59.975Z,93.37
2019-03-19T06:09:59.960Z,92.71
2019-03-19T06:10:59.996Z,93.28
2019-03-19T06:12:00.030Z,93.28
2019-03-19T06:13:00.067Z,93.18
2019-03-19T06:14:00.098Z,93.37
2019-03-19T06:15:00.316Z,93.09
2019-03-19T06:16:00.168Z,93.09
2019-03-19T06:17:00.209Z,92.80
2019-03-19T06:18:00.240Z,92.80
2019-03-19T06:19:00.271Z,92.99
2019-03-19T06:20:00.308Z,92.90
2019-03-19T06:21:00.349Z,93.09
2019-03-19T06:22:00.376Z,93.13
2019-03-19T06:23:00.414Z,92.99
2019-03-19T06:24:00.446Z,93.32
2019-03-19T06:25:00.481Z,92.76
2019-03-19T06:26:00.516Z,93.32
2019-03-19T06:27:00.553Z,93.13
2019-03-19T06:28:01.022Z,93.42
2019-03-19T06:29:00.627Z,92.94
2019-03-19T06:30:00.651Z,93.51
2019-03-19T06:31:00.737Z,93.70
2019-03-19T06:32:00.724Z,93.61
2019-03-19T06:33:00.797Z,93.99
2019-03-19T06:34:00.791Z,94.08
2019-03-19T06:35:00.829Z,93.99
2019-03-19T06:36:00.861Z,93.99
2019-03-19T06:37:00.909Z,94.08
2019-03-19T06:38:00.930Z,93.99
2019-03-19T06:39:00.969Z,93.61
2019-03-19T06:40:01.000Z,94.84
2019-03-19T06:41:01.035Z,94.37
2019-03-19T06:42:01.069Z,94.65
2019-03-19T06:43:01.112Z,94.84
2019-03-19T06:44:01.241Z,94.84
2019-03-19T06:45:01.175Z,94.74
2019-03-19T06:46:01.214Z,94.18
2019-03-19T06:47:01.245Z,94.37
2019-03-19T06:48:01.279Z,93.99
2019-03-19T06:49:01.317Z,93.99
2019-03-19T06:50:01.351Z,94.18
2019-03-19T06:51:01.382Z,94.46
2019-03-19T06:52:01.426Z,94.18
2019-03-19T06:53:01.455Z,94.27
2019-03-19T06:54:01.498Z,94.37
2019-03-19T06:55:01.525Z,94.37
2019-03-19T06:56:01.558Z,93.99
2019-03-19T06:57:01.593Z,95.12
2019-03-19T06:58:10.573Z,94.56
2019-03-19T06:59:01.666Z,94.74
2019-03-19T07:00:01.700Z,94.46
2019-03-19T07:01:01.735Z,94.65
2019-03-19T07:02:01.777Z,94.18
2019-03-19T07:03:01.814Z,94.70
2019-03-19T07:04:01.842Z,94.32
2019-03-19T07:05:01.894Z,94.37
2019-03-19T07:06:01.907Z,94.60
2019-03-19T07:07:01.943Z,94.51
2019-03-19T07:08:01.979Z,94.60
2019-03-19T07:09:02.013Z,94.79
2019-03-19T07:10:02.050Z,94.60
2019-03-19T07:11:02.092Z,95.07
2019-03-19T07:12:02.120Z,94.51
2019-03-19T07:13:02.154Z,94.98
2019-03-19T07:14:02.189Z,94.79
2019-03-19T07:15:02.227Z,95.07
2019-03-19T07:16:02.260Z,94.98
2019-03-19T07:17:02.300Z,94.51
2019-03-19T07:18:02.330Z,94.70
2019-03-19T07:19:02.363Z,94.70
2019-03-19T07:20:02.455Z,94.60
2019-03-19T07:21:02.442Z,95.26
2019-03-19T07:22:02.469Z,94.89
2019-03-19T07:23:02.507Z,94.79
2019-03-19T07:24:02.546Z,94.89
2019-03-19T07:25:02.579Z,95.07
2019-03-19T07:26:02.610Z,95.64
2019-03-19T07:27:02.645Z,94.70
2019-03-19T07:28:02.680Z,94.98
2019-03-19T07:29:02.715Z,95.07
2019-03-19T07:30:02.750Z,95.17
2019-03-19T07:31:02.785Z,94.70
2019-03-19T07:32:02.825Z,94.98
2019-03-19T07:33:02.856Z,94.79
2019-03-19T07:34:02.899Z,95.26
2019-03-19T07:35:02.931Z,95.07
2019-03-19T07:36:02.961Z,94.98
2019-03-19T07:37:03.006Z,94.65
2019-03-19T07:38:03.030Z,95.07
2019-03-19T07:39:03.169Z,94.84
2019-03-19T07:40:03.111Z,94.74
2019-03-19T07:41:03.141Z,95.21
2019-03-19T07:42:03.173Z,94.74
2019-03-19T07:43:03.209Z,95.12
2019-03-19T07:44:03.247Z,95.40
2019-03-19T07:45:03.290Z,95.50
2019-03-19T07:46:03.319Z,95.69
2019-03-19T07:47:03.351Z,95.03
2019-03-19T07:48:03.399Z,95.50
2019-03-19T07:49:03.424Z,95.40
2019-03-19T07:50:03.466Z,95.50
2019-03-19T07:51:03.493Z,95.78
2019-03-19T07:52:03.538Z,95.40
2019-03-19T07:53:03.573Z,95.50
2019-03-19T07:54:03.599Z,95.50
2019-03-19T07:55:03.635Z,95.31
2019-03-19T07:56:03.685Z,95.69
2019-03-19T07:57:03.705Z,95.78
2019-03-19T07:58:03.740Z,95.69
2019-03-19T07:59:03.779Z,96.07
2019-03-19T08:00:03.814Z,95.59
2019-03-19T08:01:03.850Z,95.88
2019-03-19T08:02:03.884Z,96.16
2019-03-19T08:03:03.922Z,95.88
2019-03-19T08:04:05.017Z,95.88
2019-03-19T08:05:03.991Z,95.83
2019-03-19T08:06:04.040Z,95.88
2019-03-19T08:07:04.066Z,96.12
2019-03-19T08:08:04.098Z,96.31
2019-03-19T08:09:04.134Z,96.12
2019-03-19T08:10:04.244Z,96.02
2019-03-19T08:11:04.207Z,96.12
2019-03-19T08:12:04.242Z,96.59
2019-03-19T08:13:04.278Z,96.78
2019-03-19T08:14:04.313Z,96.40
2019-03-19T08:15:04.349Z,96.40
2019-03-19T08:16:04.383Z,96.40
2019-03-19T08:17:04.422Z,96.40
2019-03-19T08:18:04.465Z,96.31
2019-03-19T08:19:04.491Z,96.02
2019-03-19T08:20:04.535Z,96.50
2019-03-19T08:21:04.568Z,96.69
2019-03-19T08:22:04.699Z,96.59
2019-03-19T08:23:04.640Z,96.02
2019-03-19T08:24:04.673Z,96.31
2019-03-19T08:25:04.721Z,96.69
2019-03-19T08:26:04.746Z,96.59
2019-03-19T08:27:04.783Z,96.21
2019-03-19T08:28:04.815Z,96.02
2019-03-19T08:29:04.952Z,96.69
2019-03-19T08:30:04.885Z,96.59
2019-03-19T08:31:04.925Z,96.26
2019-03-19T08:32:04.959Z,96.64
2019-03-19T08:33:04.995Z,97.21
2019-03-19T08:34:05.032Z,97.11
2019-03-19T08:35:05.071Z,97.21
2019-03-19T08:36:09.310Z,96.73
2019-03-19T08:37:05.147Z,96.64
2019-03-19T08:38:05.177Z,96.55
2019-03-19T08:39:05.211Z,96.64
2019-03-19T08:40:05.256Z,96.45
2019-03-19T08:41:05.284Z,97.11
2019-03-19T08:42:05.319Z,97.40
2019-03-19T08:43:05.356Z,97.21
2019-03-19T08:44:05.402Z,96.55
2019-03-19T08:45:05.480Z,96.36
2019-03-19T08:46:05.467Z,96.92
2019-03-19T08:47:05.501Z,96.83
2019-03-19T08:48:05.539Z,97.21
2019-03-19T08:49:05.583Z,97.11
2019-03-19T08:50:05.610Z,96.69
2019-03-19T08:51:05.651Z,96.64
2019-03-19T08:52:05.681Z,96.31
2019-03-19T08:53:05.725Z,96.59
2019-03-19T08:54:05.755Z,97.07
2019-03-19T08:55:05.804Z,97.16
2019-03-19T08:56:05.831Z,96.69
2019-03-19T08:57:05.867Z,96.50
2019-03-19T08:58:05.901Z,97.35
2019-03-19T08:59:06.322Z,96.59
2019-03-19T09:00:05.975Z,96.59
2019-03-19T09:01:06.013Z,96.31
2019-03-19T09:02:06.048Z,96.69
2019-03-19T09:03:06.084Z,96.31
2019-03-19T09:04:06.122Z,96.59
2019-03-19T09:05:06.164Z,97.07
2019-03-19T09:06:06.219Z,97.26
2019-03-19T09:07:06.238Z,96.92
2019-03-19T09:08:06.267Z,96.73
2019-03-19T09:09:06.311Z,96.64
2019-03-19T09:10:06.356Z,96.36
2019-03-19T09:11:06.377Z,95.60
2019-03-19T09:12:06.415Z,96.92
2019-03-19T09:13:06.457Z,96.03
2019-03-19T09:14:06.492Z,95.84
2019-03-19T09:15:06.533Z,96.03
2019-03-19T09:16:06.573Z,95.46
2019-03-19T09:17:06.599Z,95.07
2019-03-19T09:18:06.635Z,94.89
2019-03-19T09:19:06.822Z,96.12
2019-03-19T09:20:06.710Z,93.65
2019-03-19T09:21:06.746Z,93.27
2019-03-19T09:22:06.781Z,94.03
2019-03-19T09:23:06.820Z,93.99
2019-03-19T09:24:06.859Z,94.27
2019-03-19T09:25:06.901Z,93.41
2019-03-19T09:26:06.933Z,93.70
2019-03-19T09:27:06.967Z,92.56
2019-03-19T09:28:07.005Z,92.85
2019-03-19T09:29:16.447Z,92.94
2019-03-19T09:30:07.079Z,92.75
2019-03-19T09:31:07.117Z,92.94
2019-03-19T09:32:07.162Z,92.23
2019-03-19T09:33:07.191Z,92.80
2019-03-19T09:34:07.227Z,91.94
2019-03-19T09:35:07.270Z,92.32
2019-03-19T09:36:07.303Z,91.94
2019-03-19T09:37:07.338Z,91.19
2019-03-19T09:38:07.377Z,91.09
2019-03-19T09:39:07.414Z,90.52
2019-03-19T09:40:07.450Z,90.14
2019-03-19T09:41:07.500Z,89.00
2019-03-19T09:42:07.525Z,88.15
2019-03-19T09:43:07.563Z,89.42
2019-03-19T09:44:07.600Z,88.00
2019-03-19T09:45:07.637Z,87.62
2019-03-19T09:46:07.675Z,87.24
2019-03-19T09:47:07.711Z,86.95
2019-03-19T09:48:07.758Z,87.14
2019-03-19T09:49:07.789Z,87.05
2019-03-19T09:50:07.884Z,86.76
2019-03-19T09:51:07.863Z,86.29
2019-03-19T09:52:07.906Z,86.95
2019-03-19T09:53:07.941Z,87.43
2019-03-19T09:54:07.976Z,87.81
2019-03-19T09:55:08.015Z,87.24
2019-03-19T09:56:08.053Z,86.76
2019-03-19T09:57:08.098Z,87.81
2019-03-19T09:58:08.130Z,87.62
2019-03-19T09:59:08.166Z,87.14
2019-03-19T10:00:08.205Z,87.81
2019-03-19T10:01:08.242Z,87.09
2019-03-19T10:02:08.281Z,87.28
2019-03-19T10:03:08.319Z,86.90
2019-03-19T10:04:08.358Z,86.71
2019-03-19T10:05:08.394Z,86.71
2019-03-19T10:06:14.016Z,86.80
2019-03-19T10:07:08.478Z,86.71
2019-03-19T10:08:08.508Z,85.99
2019-03-19T10:09:08.551Z,85.99
2019-03-19T10:10:08.585Z,86.28
2019-03-19T10:11:08.624Z,85.14
2019-03-19T10:12:08.663Z,83.33
2019-03-19T10:13:08.707Z,84.00
2019-03-19T10:14:08.742Z,84.95
2019-03-19T10:15:08.780Z,85.42
2019-03-19T10:16:08.866Z,84.28
2019-03-19T10:17:08.854Z,82.76
2019-03-19T10:18:08.899Z,81.90
2019-03-19T10:19:08.931Z,81.90
2019-03-19T10:20:08.969Z,82.00
2019-03-19T10:21:09.009Z,81.33
2019-03-19T10:22:09.046Z,80.53
2019-03-19T10:23:09.086Z,79.39
2019-03-19T10:24:09.125Z,78.72
2019-03-19T10:25:09.172Z,79.01
2019-03-19T10:26:09.201Z,80.24
2019-03-19T10:27:09.242Z,80.44
2019-03-19T10:28:09.281Z,80.11
2019-03-19T10:29:09.322Z,80.91
2019-03-19T10:30:09.455Z,80.91
2019-03-19T10:31:09.398Z,82.15
2019-03-19T10:32:09.435Z,82.05
2019-03-19T10:33:09.472Z,82.00
2019-03-19T10:34:09.510Z,81.52
2019-03-19T10:35:09.552Z,81.71
2019-03-19T10:36:09.595Z,82.28
2019-03-19T10:37:09.786Z,83.14
2019-03-19T10:38:09.666Z,80.57
2019-03-19T10:39:09.704Z,79.91
2019-03-19T10:40:09.758Z,80.19
2019-03-19T10:41:09.805Z,79.52
2019-03-19T10:42:09.818Z,79.72
2019-03-19T10:43:09.860Z,79.62
2019-03-19T10:44:09.906Z,79.05
2019-03-19T10:45:09.941Z,78.57
2019-03-19T10:46:09.975Z,77.72
2019-03-19T10:47:10.013Z,77.24
2019-03-19T10:48:10.060Z,77.15
2019-03-19T10:49:10.092Z,77.91
2019-03-19T10:50:10.131Z,77.15
2019-03-19T10:51:10.186Z,77.53
2019-03-19T10:52:10.208Z,77.62
2019-03-19T10:53:10.276Z,77.34
2019-03-19T10:54:10.285Z,77.95
2019-03-19T10:55:10.332Z,78.61
2019-03-19T10:56:10.369Z,77.66
2019-03-19T10:57:10.404Z,78.71
2019-03-19T10:58:11.457Z,78.71
2019-03-19T10:59:10.497Z,78.71
2019-03-19T11:00:10.521Z,78.61
2019-03-19T11:01:10.564Z,78.42
2019-03-19T11:02:10.599Z,78.52
2019-03-19T11:03:10.656Z,77.95
2019-03-19T11:04:10.678Z,77.91
2019-03-19T11:05:10.726Z,78.48
2019-03-19T11:06:10.771Z,78.38
2019-03-19T11:07:10.797Z,77.81
2019-03-19T11:08:10.835Z,77.43
2019-03-19T11:09:10.874Z,78.48
2019-03-19T11:10:10.923Z,78.57
2019-03-19T11:11:10.952Z,78.48
2019-03-19T11:12:10.995Z,77.05
2019-03-19T11:13:11.035Z,76.01
2019-03-19T11:14:11.071Z,74.87
2019-03-19T11:15:11.108Z,74.39
2019-03-19T11:16:11.146Z,74.01
2019-03-19T11:17:11.254Z,74.58
2019-03-19T11:18:11.227Z,75.05
2019-03-19T11:19:11.264Z,74.10
2019-03-19T11:20:11.307Z,73.82
2019-03-19T11:21:11.342Z,73.06
2019-03-19T11:22:11.384Z,72.58
2019-03-19T11:23:11.421Z,72.62
2019-03-19T11:24:11.460Z,73.28
2019-03-19T11:25:11.501Z,74.24
2019-03-19T11:26:11.543Z,74.71
2019-03-19T11:27:11.586Z,73.19
2019-03-19T11:28:13.797Z,71.42
2019-03-19T11:29:11.660Z,70.65
2019-03-19T11:30:11.694Z,70.37
2019-03-19T11:31:11.735Z,70.75
2019-03-19T11:32:11.775Z,70.94
2019-03-19T11:33:11.814Z,69.26
2019-03-19T11:34:11.853Z,69.74
2019-03-19T11:35:11.892Z,68.98
2019-03-19T11:36:11.940Z,69.17
2019-03-19T11:37:11.971Z,67.83
2019-03-19T11:38:12.010Z,67.74
2019-03-19T11:39:12.052Z,67.10
2019-03-19T11:40:12.092Z,68.24
2019-03-19T11:41:12.132Z,69.96
2019-03-19T11:42:12.180Z,69.48
2019-03-19T11:43:12.209Z,69.43
2019-03-19T11:44:12.259Z,69.71
2019-03-19T11:45:12.291Z,69.23
2019-03-19T11:46:12.330Z,69.23
2019-03-19T11:47:12.379Z,69.04
2019-03-19T11:48:12.413Z,69.04
2019-03-19T11:49:12.463Z,68.76
2019-03-19T11:50:12.495Z,69.20
2019-03-19T11:51:12.534Z,69.74
2019-03-19T11:52:12.574Z,70.59
2019-03-19T11:53:12.616Z,71.36
2019-03-19T11:54:12.655Z,72.12
2019-03-19T11:55:12.709Z,72.78
2019-03-19T11:56:12.738Z,72.88
2019-03-19T11:57:12.777Z,72.12
2019-03-19T11:58:12.820Z,72.12
2019-03-19T11:59:12.860Z,72.17
2019-03-19T12:00:12.899Z,72.08
2019-03-19T12:01:12.939Z,72.69
2019-03-19T12:02:12.993Z,73.41
2019-03-19T12:03:16.378Z,73.17
2019-03-19T12:04:13.061Z,73.45
2019-03-19T12:05:13.103Z,73.32
2019-03-19T12:06:13.142Z,72.08
2019-03-19T12:07:13.183Z,72.65
2019-03-19T12:08:13.225Z,72.08
2019-03-19T12:09:13.265Z,71.51
2019-03-19T12:10:13.347Z,71.22
2019-03-19T12:11:13.404Z,71.76
2019-03-19T12:12:13.386Z,72.62
2019-03-19T12:13:13.428Z,73.57
2019-03-19T12:14:13.465Z,74.14
2019-03-19T12:15:13.506Z,73.47
2019-03-19T12:16:13.548Z,72.52
2019-03-19T12:17:13.588Z,73.13
2019-03-19T12:18:13.628Z,73.32
2019-03-19T12:19:13.667Z,73.70
2019-03-19T12:20:13.710Z,72.46
2019-03-19T12:21:13.750Z,72.12
2019-03-19T12:22:13.788Z,71.36
2019-03-19T12:23:13.827Z,71.07
2019-03-19T12:24:13.869Z,70.31
2019-03-19T12:25:13.909Z,68.98
2019-03-19T12:26:13.951Z,68.15
2019-03-19T12:27:13.995Z,67.77
2019-03-19T12:28:14.031Z,68.24
2019-03-19T12:29:14.071Z,68.34
2019-03-19T12:30:22.238Z,68.34
2019-03-19T12:31:14.152Z,67.68
2019-03-19T12:32:14.200Z,67.48
2019-03-19T12:33:14.244Z,67.58
2019-03-19T12:34:14.276Z,68.28
2019-03-19T12:35:14.313Z,67.80
2019-03-19T12:36:14.356Z,67.33
2019-03-19T12:37:14.401Z,67.71
2019-03-19T12:38:14.437Z,63.99
2019-03-19T12:39:14.476Z,61.41
2019-03-19T12:40:14.527Z,61.32
2019-03-19T12:41:14.586Z,62.27
2019-03-19T12:42:14.598Z,63.00
2019-03-19T12:43:14.640Z,63.70
2019-03-19T12:44:14.682Z,63.32
2019-03-19T12:45:14.732Z,63.51
2019-03-19T12:46:14.774Z,63.60
2019-03-19T12:47:14.805Z,63.89
2019-03-19T12:48:14.906Z,64.18
2019-03-19T12:49:14.889Z,64.85
2019-03-19T12:50:14.928Z,64.28
2019-03-19T12:51:14.968Z,64.94
2019-03-19T12:52:15.020Z,64.47
2019-03-19T12:53:15.051Z,64.72